sensor_id;sensor_type;location;lat;lon;timestamp;P1;durP1;ratioP1;P2;durP2;ratioP2
37931;SDS011;23758;42.640;23.302;2023-06-22T10:31:06;0.90;;;0.90;;
37931;SDS011;23758;42.640;23.302;2023-06-22T10:33:31;0.80;;;0.80;;
37931;SDS011;23758;42.640;23.302;2023-06-22T10:35:57;0.80;;;0.80;;
37931;SDS011;23758;42.640;23.302;2023-06-22T10:38:22;1.30;;;1.20;;
37931;SDS011;23758;42.640;23.302;2023-06-22T10:40:48;0.88;;;0.88;;
37931;SDS011;23758;42.640;23.302;2023-06-22T10:43:13;0.65;;;0.65;;
37931;SDS011;23758;42.640;23.302;2023-06-22T10:45:39;1.00;;;0.98;;
37931;SDS011;23758;42.640;23.302;2023-06-22T10:48:04;1.20;;;1.10;;
37931;SDS011;23758;42.640;23.302;2023-06-22T10:50:30;0.90;;;0.90;;
37931;SDS011;23758;42.640;23.302;2023-06-22T10:52:55;1.30;;;1.20;;
37931;SDS011;23758;42.640;23.302;2023-06-22T10:55:20;0.98;;;0.95;;
37931;SDS011;23758;42.640;23.302;2023-06-22T10:57:46;1.20;;;1.10;;
37931;SDS011;23758;42.640;23.302;2023-06-22T11:00:12;1.40;;;1.30;;
37931;SDS011;23758;42.640;23.302;2023-06-22T11:02:38;0.98;;;0.98;;
37931;SDS011;23758;42.640;23.302;2023-06-22T11:05:04;1.13;;;1.08;;
37931;SDS011;23758;42.640;23.302;2023-06-22T11:07:30;2.90;;;1.33;;
37931;SDS011;23758;42.640;23.302;2023-06-22T11:09:58;1.20;;;1.15;;
37931;SDS011;23758;42.640;23.302;2023-06-22T11:12:24;1.30;;;1.20;;
37931;SDS011;23758;42.640;23.302;2023-06-22T11:14:49;0.90;;;0.90;;
37931;SDS011;23758;42.640;23.302;2023-06-22T11:17:22;1.20;;;1.13;;
37931;SDS011;23758;42.640;23.302;2023-06-22T11:19:47;1.45;;;1.35;;
37931;SDS011;23758;42.640;23.302;2023-06-22T11:22:13;1.70;;;1.15;;
37931;SDS011;23758;42.640;23.302;2023-06-22T11:24:38;1.17;;;1.08;;
37931;SDS011;23758;42.640;23.302;2023-06-22T11:27:04;1.08;;;1.08;;
37931;SDS011;23758;42.640;23.302;2023-06-22T11:29:30;0.90;;;0.90;;
37931;SDS011;23758;42.640;23.302;2023-06-22T11:31:56;0.95;;;0.95;;
37931;SDS011;23758;42.640;23.302;2023-06-22T11:34:21;1.33;;;1.23;;
37931;SDS011;23758;42.640;23.302;2023-06-22T11:36:46;1.15;;;1.05;;
37931;SDS011;23758;42.640;23.302;2023-06-22T11:39:13;1.20;;;1.10;;
37931;SDS011;23758;42.640;23.302;2023-06-22T11:41:40;1.20;;;1.10;;
37931;SDS011;23758;42.640;23.302;2023-06-22T11:44:06;1.25;;;1.15;;
37931;SDS011;23758;42.640;23.302;2023-06-22T11:46:32;1.05;;;1.05;;
37931;SDS011;23758;42.640;23.302;2023-06-22T11:48:57;1.40;;;1.30;;
37931;SDS011;23758;42.640;23.302;2023-06-22T11:51:23;1.13;;;1.08;;
37931;SDS011;23758;42.640;23.302;2023-06-22T11:53:48;1.48;;;1.38;;
37931;SDS011;23758;42.640;23.302;2023-06-22T11:56:14;1.40;;;1.30;;
37931;SDS011;23758;42.640;23.302;2023-06-22T11:58:39;1.40;;;1.30;;
37931;SDS011;23758;42.640;23.302;2023-06-22T12:01:05;1.30;;;1.20;;
37931;SDS011;23758;42.640;23.302;2023-06-22T12:03:30;1.30;;;1.20;;
37931;SDS011;23758;42.640;23.302;2023-06-22T12:05:55;1.45;;;1.35;;
37931;SDS011;23758;42.640;23.302;2023-06-22T12:08:21;1.40;;;1.30;;
37931;SDS011;23758;42.640;23.302;2023-06-22T12:10:47;1.80;;;1.70;;
37931;SDS011;23758;42.640;23.302;2023-06-22T12:13:12;1.60;;;1.50;;
37931;SDS011;23758;42.640;23.302;2023-06-22T12:15:38;1.50;;;1.40;;
37931;SDS011;23758;42.640;23.302;2023-06-22T12:18:03;1.75;;;1.65;;
37931;SDS011;23758;42.640;23.302;2023-06-22T12:20:29;1.52;;;1.42;;
37931;SDS011;23758;42.640;23.302;2023-06-22T12:22:54;1.60;;;1.50;;
37931;SDS011;23758;42.640;23.302;2023-06-22T12:25:23;1.60;;;1.50;;
37931;SDS011;23758;42.640;23.302;2023-06-22T12:27:48;2.88;;;1.95;;
37931;SDS011;23758;42.640;23.302;2023-06-22T12:30:15;1.45;;;1.35;;
37931;SDS011;23758;42.640;23.302;2023-06-22T12:32:41;1.35;;;1.25;;
37931;SDS011;23758;42.640;23.302;2023-06-22T12:35:06;1.58;;;1.48;;
37931;SDS011;23758;42.640;23.302;2023-06-22T12:37:37;1.83;;;1.70;;
37931;SDS011;23758;42.640;23.302;2023-06-22T12:40:02;1.83;;;1.73;;
37931;SDS011;23758;42.640;23.302;2023-06-22T12:42:29;1.80;;;1.70;;
37931;SDS011;23758;42.640;23.302;2023-06-22T12:44:54;2.10;;;2.00;;
37931;SDS011;23758;42.640;23.302;2023-06-22T12:47:20;1.90;;;1.80;;
37931;SDS011;23758;42.640;23.302;2023-06-22T12:49:45;1.80;;;1.70;;
37931;SDS011;23758;42.640;23.302;2023-06-22T12:52:11;1.83;;;1.73;;
37931;SDS011;23758;42.640;23.302;2023-06-22T12:54:36;2.55;;;2.35;;
37931;SDS011;23758;42.640;23.302;2023-06-22T12:57:02;2.55;;;2.35;;
37931;SDS011;23758;42.640;23.302;2023-06-22T12:59:27;2.17;;;2.08;;
37931;SDS011;23758;42.640;23.302;2023-06-22T13:01:53;2.47;;;2.28;;
37931;SDS011;23758;42.640;23.302;2023-06-22T13:04:19;2.30;;;2.20;;
37931;SDS011;23758;42.640;23.302;2023-06-22T13:06:46;2.65;;;2.45;;
37931;SDS011;23758;42.640;23.302;2023-06-22T13:09:13;2.22;;;2.13;;
37931;SDS011;23758;42.640;23.302;2023-06-22T13:11:39;2.47;;;2.28;;
37931;SDS011;23758;42.640;23.302;2023-06-22T13:14:04;2.50;;;2.30;;
37931;SDS011;23758;42.640;23.302;2023-06-22T13:16:30;2.28;;;2.10;;
37931;SDS011;23758;42.640;23.302;2023-06-22T13:18:55;2.17;;;2.08;;
37931;SDS011;23758;42.640;23.302;2023-06-22T13:21:21;1.92;;;1.83;;
37931;SDS011;23758;42.640;23.302;2023-06-22T13:23:46;2.88;;;2.10;;
37931;SDS011;23758;42.640;23.302;2023-06-22T13:26:12;1.80;;;1.70;;
37931;SDS011;23758;42.640;23.302;2023-06-22T13:28:37;2.08;;;1.95;;
37931;SDS011;23758;42.640;23.302;2023-06-22T13:31:03;1.63;;;1.52;;
37931;SDS011;23758;42.640;23.302;2023-06-22T13:33:28;1.90;;;1.80;;
37931;SDS011;23758;42.640;23.302;2023-06-22T13:35:54;1.60;;;1.50;;
37931;SDS011;23758;42.640;23.302;2023-06-22T13:38:19;2.30;;;2.10;;
37931;SDS011;23758;42.640;23.302;2023-06-22T13:40:45;1.98;;;1.88;;
37931;SDS011;23758;42.640;23.302;2023-06-22T13:43:12;1.60;;;1.50;;
37931;SDS011;23758;42.640;23.302;2023-06-22T13:45:38;1.50;;;1.40;;
37931;SDS011;23758;42.640;23.302;2023-06-22T13:48:03;1.80;;;1.70;;
37931;SDS011;23758;42.640;23.302;2023-06-22T13:50:29;1.80;;;1.70;;
37931;SDS011;23758;42.640;23.302;2023-06-22T13:52:55;1.90;;;1.80;;
37931;SDS011;23758;42.640;23.302;2023-06-22T13:55:21;1.80;;;1.70;;
37931;SDS011;23758;42.640;23.302;2023-06-22T13:57:48;1.60;;;1.50;;
37931;SDS011;23758;42.640;23.302;2023-06-22T14:00:14;1.90;;;1.80;;
37931;SDS011;23758;42.640;23.302;2023-06-22T14:02:40;1.70;;;1.60;;
37931;SDS011;23758;42.640;23.302;2023-06-22T14:05:06;2.08;;;1.98;;
37931;SDS011;23758;42.640;23.302;2023-06-22T14:07:32;1.70;;;1.60;;
37931;SDS011;23758;42.640;23.302;2023-06-22T14:09:58;1.80;;;1.70;;
37931;SDS011;23758;42.640;23.302;2023-06-22T14:12:25;1.80;;;1.70;;
37931;SDS011;23758;42.640;23.302;2023-06-22T14:14:50;2.17;;;2.08;;
37931;SDS011;23758;42.640;23.302;2023-06-22T14:17:16;1.90;;;1.80;;
37931;SDS011;23758;42.640;23.302;2023-06-22T14:19:41;1.80;;;1.70;;
37931;SDS011;23758;42.640;23.302;2023-06-22T14:22:07;1.90;;;1.80;;
37931;SDS011;23758;42.640;23.302;2023-06-22T14:24:32;1.95;;;1.85;;
37931;SDS011;23758;42.640;23.302;2023-06-22T14:26:57;1.67;;;1.58;;
37931;SDS011;23758;42.640;23.302;2023-06-22T14:29:23;3.30;;;1.70;;
37931;SDS011;23758;42.640;23.302;2023-06-22T14:31:50;2.42;;;1.90;;
37931;SDS011;23758;42.640;23.302;2023-06-22T14:34:15;1.77;;;1.67;;
37931;SDS011;23758;42.640;23.302;2023-06-22T14:36:42;1.92;;;1.83;;
37931;SDS011;23758;42.640;23.302;2023-06-22T14:39:08;1.90;;;1.80;;
37931;SDS011;23758;42.640;23.302;2023-06-22T14:41:34;1.60;;;1.50;;
37931;SDS011;23758;42.640;23.302;2023-06-22T14:44:00;1.70;;;1.60;;
37931;SDS011;23758;42.640;23.302;2023-06-22T14:46:25;1.75;;;1.65;;
37931;SDS011;23758;42.640;23.302;2023-06-22T14:48:51;2.17;;;1.98;;
37931;SDS011;23758;42.640;23.302;2023-06-22T14:51:17;1.70;;;1.60;;
37931;SDS011;23758;42.640;23.302;2023-06-22T14:53:43;1.58;;;1.48;;
37931;SDS011;23758;42.640;23.302;2023-06-22T14:56:09;1.50;;;1.40;;
37931;SDS011;23758;42.640;23.302;2023-06-22T14:58:34;1.50;;;1.40;;
37931;SDS011;23758;42.640;23.302;2023-06-22T15:01:03;1.70;;;1.60;;
37931;SDS011;23758;42.640;23.302;2023-06-22T15:03:30;2.65;;;2.30;;
37931;SDS011;23758;42.640;23.302;2023-06-22T15:05:57;1.52;;;1.42;;
37931;SDS011;23758;42.640;23.302;2023-06-22T15:08:23;1.40;;;1.30;;
37931;SDS011;23758;42.640;23.302;2023-06-22T15:10:49;1.40;;;1.30;;
37931;SDS011;23758;42.640;23.302;2023-06-22T15:13:15;1.67;;;1.58;;
37931;SDS011;23758;42.640;23.302;2023-06-22T15:15:42;1.80;;;1.50;;
37931;SDS011;23758;42.640;23.302;2023-06-22T15:18:08;1.60;;;1.50;;
37931;SDS011;23758;42.640;23.302;2023-06-22T15:20:33;1.45;;;1.35;;
37931;SDS011;23758;42.640;23.302;2023-06-22T15:22:59;1.67;;;1.58;;
37931;SDS011;23758;42.640;23.302;2023-06-22T15:25:24;1.40;;;1.30;;
37931;SDS011;23758;42.640;23.302;2023-06-22T15:27:50;8.32;;;1.95;;
37931;SDS011;23758;42.640;23.302;2023-06-22T15:30:15;1.63;;;1.52;;
37931;SDS011;23758;42.640;23.302;2023-06-22T15:32:42;1.50;;;1.40;;
37931;SDS011;23758;42.640;23.302;2023-06-22T15:35:09;1.40;;;1.30;;
37931;SDS011;23758;42.640;23.302;2023-06-22T15:37:35;1.85;;;1.75;;
37931;SDS011;23758;42.640;23.302;2023-06-22T15:40:00;1.50;;;1.40;;
37931;SDS011;23758;42.640;23.302;2023-06-22T15:42:26;2.75;;;1.80;;
37931;SDS011;23758;42.640;23.302;2023-06-22T15:44:51;2.83;;;2.17;;
37931;SDS011;23758;42.640;23.302;2023-06-22T15:47:17;1.73;;;1.63;;
37931;SDS011;23758;42.640;23.302;2023-06-22T15:49:46;1.55;;;1.45;;
37931;SDS011;23758;42.640;23.302;2023-06-22T15:52:12;1.83;;;1.65;;
37931;SDS011;23758;42.640;23.302;2023-06-22T15:54:42;2.35;;;2.15;;
37931;SDS011;23758;42.640;23.302;2023-06-22T15:57:08;1.75;;;1.65;;
37931;SDS011;23758;42.640;23.302;2023-06-22T15:59:33;1.80;;;1.70;;
37931;SDS011;23758;42.640;23.302;2023-06-22T16:01:59;2.55;;;2.08;;
37931;SDS011;23758;42.640;23.302;2023-06-22T16:04:24;1.65;;;1.55;;
37931;SDS011;23758;42.640;23.302;2023-06-22T16:06:50;1.50;;;1.40;;
37931;SDS011;23758;42.640;23.302;2023-06-22T16:09:15;1.67;;;1.58;;
37931;SDS011;23758;42.640;23.302;2023-06-22T16:11:40;1.60;;;1.50;;
37931;SDS011;23758;42.640;23.302;2023-06-22T16:14:06;2.78;;;1.90;;
37931;SDS011;23758;42.640;23.302;2023-06-22T16:16:33;1.80;;;1.70;;
37931;SDS011;23758;42.640;23.302;2023-06-22T16:18:59;2.17;;;1.92;;
37931;SDS011;23758;42.640;23.302;2023-06-22T16:21:24;1.80;;;1.70;;
37931;SDS011;23758;42.640;23.302;2023-06-22T16:23:50;1.70;;;1.60;;
37931;SDS011;23758;42.640;23.302;2023-06-22T16:26:16;2.17;;;2.00;;
37931;SDS011;23758;42.640;23.302;2023-06-22T16:28:41;2.10;;;2.00;;
37931;SDS011;23758;42.640;23.302;2023-06-22T16:31:07;1.83;;;1.73;;
37931;SDS011;23758;42.640;23.302;2023-06-22T16:33:32;2.28;;;2.08;;
37931;SDS011;23758;42.640;23.302;2023-06-22T16:35:58;1.67;;;1.58;;
37931;SDS011;23758;42.640;23.302;2023-06-22T16:38:23;1.70;;;1.60;;
37931;SDS011;23758;42.640;23.302;2023-06-22T16:40:49;2.25;;;2.05;;
37931;SDS011;23758;42.640;23.302;2023-06-22T16:43:14;1.80;;;1.70;;
37931;SDS011;23758;42.640;23.302;2023-06-22T16:45:40;1.58;;;1.48;;
37931;SDS011;23758;42.640;23.302;2023-06-22T16:48:05;2.15;;;1.95;;
37931;SDS011;23758;42.640;23.302;2023-06-22T16:50:31;1.60;;;1.50;;
37931;SDS011;23758;42.640;23.302;2023-06-22T16:52:56;2.25;;;1.88;;
37931;SDS011;23758;42.640;23.302;2023-06-22T16:55:21;1.90;;;1.80;;
37931;SDS011;23758;42.640;23.302;2023-06-22T16:57:49;2.00;;;1.90;;
37931;SDS011;23758;42.640;23.302;2023-06-22T17:00:16;1.92;;;1.83;;
37931;SDS011;23758;42.640;23.302;2023-06-22T17:02:51;1.70;;;1.60;;
37931;SDS011;23758;42.640;23.302;2023-06-22T17:05:17;2.15;;;1.98;;
37931;SDS011;23758;42.640;23.302;2023-06-22T17:07:45;1.83;;;1.73;;
37931;SDS011;23758;42.640;23.302;2023-06-22T17:10:13;1.63;;;1.52;;
37931;SDS011;23758;42.640;23.302;2023-06-22T17:12:39;1.65;;;1.55;;
37931;SDS011;23758;42.640;23.302;2023-06-22T17:15:06;1.83;;;1.73;;
37931;SDS011;23758;42.640;23.302;2023-06-22T17:17:39;1.75;;;1.65;;
37931;SDS011;23758;42.640;23.302;2023-06-22T17:20:05;2.13;;;1.60;;
37931;SDS011;23758;42.640;23.302;2023-06-22T17:22:32;2.00;;;1.85;;
37931;SDS011;23758;42.640;23.302;2023-06-22T17:25:09;1.77;;;1.67;;
37931;SDS011;23758;42.640;23.302;2023-06-22T17:27:35;1.83;;;1.73;;
37931;SDS011;23758;42.640;23.302;2023-06-22T17:30:10;1.80;;;1.70;;
37931;SDS011;23758;42.640;23.302;2023-06-22T17:32:45;1.93;;;1.83;;
37931;SDS011;23758;42.640;23.302;2023-06-22T17:35:12;1.98;;;1.88;;
37931;SDS011;23758;42.640;23.302;2023-06-22T17:37:47;2.92;;;2.72;;
37931;SDS011;23758;42.640;23.302;2023-06-22T17:40:15;2.67;;;2.42;;
37931;SDS011;23758;42.640;23.302;2023-06-22T17:42:41;1.92;;;1.83;;
37931;SDS011;23758;42.640;23.302;2023-06-22T17:45:14;2.10;;;2.00;;
37931;SDS011;23758;42.640;23.302;2023-06-22T17:47:40;1.90;;;1.80;;
37931;SDS011;23758;42.640;23.302;2023-06-22T17:50:06;2.13;;;2.03;;
37931;SDS011;23758;42.640;23.302;2023-06-22T17:52:32;1.90;;;1.80;;
37931;SDS011;23758;42.640;23.302;2023-06-22T17:54:57;1.88;;;1.77;;
37931;SDS011;23758;42.640;23.302;2023-06-22T17:57:27;2.22;;;2.10;;
37931;SDS011;23758;42.640;23.302;2023-06-22T18:00:02;2.10;;;2.00;;
37931;SDS011;23758;42.640;23.302;2023-06-22T18:02:39;2.05;;;1.95;;
37931;SDS011;23758;42.640;23.302;2023-06-22T18:05:07;2.50;;;2.30;;
37931;SDS011;23758;42.640;23.302;2023-06-22T18:07:34;2.45;;;2.25;;
37931;SDS011;23758;42.640;23.302;2023-06-22T18:10:03;2.78;;;2.58;;
37931;SDS011;23758;42.640;23.302;2023-06-22T18:12:29;2.05;;;1.95;;
37931;SDS011;23758;42.640;23.302;2023-06-22T18:14:59;2.40;;;2.20;;
37931;SDS011;23758;42.640;23.302;2023-06-22T18:17:25;3.15;;;2.85;;
37931;SDS011;23758;42.640;23.302;2023-06-22T18:19:51;2.88;;;2.67;;
37931;SDS011;23758;42.640;23.302;2023-06-22T18:22:17;2.40;;;2.20;;
37931;SDS011;23758;42.640;23.302;2023-06-22T18:24:44;2.05;;;1.95;;
37931;SDS011;23758;42.640;23.302;2023-06-22T18:27:12;2.25;;;2.15;;
37931;SDS011;23758;42.640;23.302;2023-06-22T18:29:40;2.00;;;1.90;;
37931;SDS011;23758;42.640;23.302;2023-06-22T18:32:06;2.50;;;2.30;;
37931;SDS011;23758;42.640;23.302;2023-06-22T18:34:32;2.20;;;2.10;;
37931;SDS011;23758;42.640;23.302;2023-06-22T18:36:57;2.28;;;2.13;;
37931;SDS011;23758;42.640;23.302;2023-06-22T18:39:24;2.08;;;1.98;;
37931;SDS011;23758;42.640;23.302;2023-06-22T18:41:50;2.10;;;2.00;;
37931;SDS011;23758;42.640;23.302;2023-06-22T18:44:18;2.65;;;2.30;;
37931;SDS011;23758;42.640;23.302;2023-06-22T18:46:50;2.20;;;2.10;;
37931;SDS011;23758;42.640;23.302;2023-06-22T18:49:18;2.03;;;1.92;;
37931;SDS011;23758;42.640;23.302;2023-06-22T18:54:19;2.10;;;2.00;;
37931;SDS011;23758;42.640;23.302;2023-06-22T18:56:53;2.30;;;2.20;;
37931;SDS011;23758;42.640;23.302;2023-06-22T19:02:09;2.17;;;2.05;;
37931;SDS011;23758;42.640;23.302;2023-06-22T19:04:39;2.30;;;2.10;;
37931;SDS011;23758;42.640;23.302;2023-06-22T19:07:06;2.17;;;2.05;;
37931;SDS011;23758;42.640;23.302;2023-06-22T19:09:32;2.50;;;2.30;;
37931;SDS011;23758;42.640;23.302;2023-06-22T19:17:35;2.10;;;2.00;;
37931;SDS011;23758;42.640;23.302;2023-06-22T19:20:01;5.15;;;2.72;;
37931;SDS011;23758;42.640;23.302;2023-06-22T19:25:18;2.70;;;2.50;;
37931;SDS011;23758;42.640;23.302;2023-06-22T19:27:45;2.50;;;2.30;;
37931;SDS011;23758;42.640;23.302;2023-06-22T19:30:16;2.20;;;2.10;;
37931;SDS011;23758;42.640;23.302;2023-06-22T19:32:42;2.55;;;2.35;;
37931;SDS011;23758;42.640;23.302;2023-06-22T19:35:09;2.38;;;2.28;;
37931;SDS011;23758;42.640;23.302;2023-06-22T19:37:37;2.40;;;2.20;;
37931;SDS011;23758;42.640;23.302;2023-06-22T19:40:07;2.35;;;2.25;;
37931;SDS011;23758;42.640;23.302;2023-06-22T19:42:42;4.32;;;3.08;;
37931;SDS011;23758;42.640;23.302;2023-06-22T19:45:09;3.45;;;2.83;;
37931;SDS011;23758;42.640;23.302;2023-06-22T19:47:39;2.67;;;2.47;;
37931;SDS011;23758;42.640;23.302;2023-06-22T19:50:04;2.78;;;2.58;;
37931;SDS011;23758;42.640;23.302;2023-06-22T19:52:38;2.78;;;2.58;;
37931;SDS011;23758;42.640;23.302;2023-06-22T19:55:07;2.55;;;2.40;;
37931;SDS011;23758;42.640;23.302;2023-06-22T19:57:37;2.80;;;2.60;;
37931;SDS011;23758;42.640;23.302;2023-06-22T20:00:03;2.67;;;2.47;;
37931;SDS011;23758;42.640;23.302;2023-06-22T20:02:41;2.63;;;2.42;;
37931;SDS011;23758;42.640;23.302;2023-06-22T20:05:07;2.80;;;2.60;;
37931;SDS011;23758;42.640;23.302;2023-06-22T20:07:37;2.58;;;2.38;;
37931;SDS011;23758;42.640;23.302;2023-06-22T20:12:33;2.45;;;2.30;;
37931;SDS011;23758;42.640;23.302;2023-06-22T20:17:56;2.88;;;2.67;;
37931;SDS011;23758;42.640;23.302;2023-06-22T20:20:22;2.55;;;2.40;;
37931;SDS011;23758;42.640;23.302;2023-06-22T20:22:49;2.80;;;2.60;;
37931;SDS011;23758;42.640;23.302;2023-06-22T20:25:18;2.92;;;2.72;;
37931;SDS011;23758;42.640;23.302;2023-06-22T20:27:45;2.80;;;2.60;;
37931;SDS011;23758;42.640;23.302;2023-06-22T20:30:14;3.00;;;2.63;;
37931;SDS011;23758;42.640;23.302;2023-06-22T20:32:50;2.30;;;2.20;;
37931;SDS011;23758;42.640;23.302;2023-06-22T20:35:19;3.20;;;3.00;;
37931;SDS011;23758;42.640;23.302;2023-06-22T20:37:48;3.00;;;2.80;;
37931;SDS011;23758;42.640;23.302;2023-06-22T20:40:19;2.88;;;2.50;;
37931;SDS011;23758;42.640;23.302;2023-06-22T20:42:45;4.20;;;3.03;;
37931;SDS011;23758;42.640;23.302;2023-06-22T20:45:11;2.80;;;2.60;;
37931;SDS011;23758;42.640;23.302;2023-06-22T20:47:37;2.95;;;2.75;;
37931;SDS011;23758;42.640;23.302;2023-06-22T20:50:02;2.70;;;2.50;;
37931;SDS011;23758;42.640;23.302;2023-06-22T20:52:28;2.67;;;2.47;;
37931;SDS011;23758;42.640;23.302;2023-06-22T20:54:54;2.60;;;2.40;;
37931;SDS011;23758;42.640;23.302;2023-06-22T20:57:20;2.60;;;2.40;;
37931;SDS011;23758;42.640;23.302;2023-06-22T20:59:45;2.20;;;2.10;;
37931;SDS011;23758;42.640;23.302;2023-06-22T21:02:11;2.63;;;2.42;;
37931;SDS011;23758;42.640;23.302;2023-06-22T21:04:37;2.75;;;2.50;;
37931;SDS011;23758;42.640;23.302;2023-06-22T21:07:04;2.53;;;2.40;;
37931;SDS011;23758;42.640;23.302;2023-06-22T21:09:30;2.70;;;2.50;;
37931;SDS011;23758;42.640;23.302;2023-06-22T21:11:55;2.70;;;2.50;;
37931;SDS011;23758;42.640;23.302;2023-06-22T21:14:21;2.67;;;2.47;;
37931;SDS011;23758;42.640;23.302;2023-06-22T21:16:46;2.30;;;2.20;;
37931;SDS011;23758;42.640;23.302;2023-06-22T21:19:12;2.30;;;2.20;;
37931;SDS011;23758;42.640;23.302;2023-06-22T21:21:38;2.65;;;2.45;;
37931;SDS011;23758;42.640;23.302;2023-06-22T21:24:04;3.03;;;2.58;;
37931;SDS011;23758;42.640;23.302;2023-06-22T21:26:29;3.22;;;2.92;;
37931;SDS011;23758;42.640;23.302;2023-06-22T21:28:55;2.60;;;2.40;;
37931;SDS011;23758;42.640;23.302;2023-06-22T21:31:20;9.07;;;2.85;;
37931;SDS011;23758;42.640;23.302;2023-06-22T21:33:46;2.72;;;2.53;;
37931;SDS011;23758;42.640;23.302;2023-06-22T21:36:11;2.40;;;2.30;;
37931;SDS011;23758;42.640;23.302;2023-06-22T21:38:37;2.60;;;2.40;;
37931;SDS011;23758;42.640;23.302;2023-06-22T21:41:02;2.50;;;2.30;;
37931;SDS011;23758;42.640;23.302;2023-06-22T21:43:28;3.25;;;2.80;;
37931;SDS011;23758;42.640;23.302;2023-06-22T21:45:53;2.30;;;2.20;;
37931;SDS011;23758;42.640;23.302;2023-06-22T21:48:19;2.50;;;2.30;;
37931;SDS011;23758;42.640;23.302;2023-06-22T21:50:45;2.47;;;2.33;;
37931;SDS011;23758;42.640;23.302;2023-06-22T21:53:10;2.50;;;2.30;;
37931;SDS011;23758;42.640;23.302;2023-06-22T21:55:36;2.40;;;2.25;;
37931;SDS011;23758;42.640;23.302;2023-06-22T21:58:01;2.20;;;2.10;;
37931;SDS011;23758;42.640;23.302;2023-06-22T22:00:27;2.30;;;2.20;;
37931;SDS011;23758;42.640;23.302;2023-06-22T22:02:52;2.40;;;2.20;;
37931;SDS011;23758;42.640;23.302;2023-06-22T22:05:18;2.10;;;2.00;;
37931;SDS011;23758;42.640;23.302;2023-06-22T22:07:44;2.20;;;2.10;;
37931;SDS011;23758;42.640;23.302;2023-06-22T22:10:10;2.20;;;2.08;;
37931;SDS011;23758;42.640;23.302;2023-06-22T22:12:37;2.08;;;1.92;;
37931;SDS011;23758;42.640;23.302;2023-06-22T22:15:03;2.00;;;1.90;;
37931;SDS011;23758;42.640;23.302;2023-06-22T22:17:29;2.00;;;1.90;;
37931;SDS011;23758;42.640;23.302;2023-06-22T22:19:54;2.00;;;1.90;;
37931;SDS011;23758;42.640;23.302;2023-06-22T22:22:20;2.65;;;2.05;;
37931;SDS011;23758;42.640;23.302;2023-06-22T22:24:45;1.85;;;1.75;;
37931;SDS011;23758;42.640;23.302;2023-06-22T22:27:11;3.78;;;2.55;;
37931;SDS011;23758;42.640;23.302;2023-06-22T22:29:36;2.50;;;2.30;;
37931;SDS011;23758;42.640;23.302;2023-06-22T22:32:02;2.13;;;2.03;;
37931;SDS011;23758;42.640;23.302;2023-06-22T22:34:28;2.83;;;2.63;;
37931;SDS011;23758;42.640;23.302;2023-06-22T22:36:54;2.10;;;2.00;;
37931;SDS011;23758;42.640;23.302;2023-06-22T22:39:29;2.28;;;2.15;;
37931;SDS011;23758;42.640;23.302;2023-06-22T22:41:56;1.80;;;1.70;;
37931;SDS011;23758;42.640;23.302;2023-06-22T22:44:21;2.28;;;2.10;;
37931;SDS011;23758;42.640;23.302;2023-06-22T22:46:47;1.98;;;1.88;;
37931;SDS011;23758;42.640;23.302;2023-06-22T22:49:12;1.90;;;1.80;;
37931;SDS011;23758;42.640;23.302;2023-06-22T22:51:37;1.90;;;1.80;;
37931;SDS011;23758;42.640;23.302;2023-06-22T22:54:03;1.90;;;1.80;;
37931;SDS011;23758;42.640;23.302;2023-06-22T22:56:30;2.13;;;2.00;;
37931;SDS011;23758;42.640;23.302;2023-06-22T22:58:56;1.95;;;1.85;;
37931;SDS011;23758;42.640;23.302;2023-06-22T23:01:21;2.10;;;2.00;;
37931;SDS011;23758;42.640;23.302;2023-06-22T23:03:47;2.00;;;1.90;;
37931;SDS011;23758;42.640;23.302;2023-06-22T23:06:12;2.17;;;2.08;;
37931;SDS011;23758;42.640;23.302;2023-06-22T23:08:38;2.40;;;2.20;;
37931;SDS011;23758;42.640;23.302;2023-06-22T23:11:03;2.33;;;2.13;;
37931;SDS011;23758;42.640;23.302;2023-06-22T23:13:30;2.00;;;1.90;;
37931;SDS011;23758;42.640;23.302;2023-06-22T23:15:55;2.00;;;1.90;;
37931;SDS011;23758;42.640;23.302;2023-06-22T23:18:21;1.92;;;1.83;;
37931;SDS011;23758;42.640;23.302;2023-06-22T23:20:47;2.22;;;2.13;;
37931;SDS011;23758;42.640;23.302;2023-06-22T23:23:12;2.03;;;1.92;;
37931;SDS011;23758;42.640;23.302;2023-06-22T23:25:38;1.90;;;1.80;;
37931;SDS011;23758;42.640;23.302;2023-06-22T23:28:04;1.90;;;1.80;;
37931;SDS011;23758;42.640;23.302;2023-06-22T23:30:30;2.30;;;2.08;;
37931;SDS011;23758;42.640;23.302;2023-06-22T23:32:56;2.20;;;1.90;;
37931;SDS011;23758;42.640;23.302;2023-06-22T23:35:22;1.80;;;1.70;;
37931;SDS011;23758;42.640;23.302;2023-06-22T23:37:47;2.15;;;2.05;;
37931;SDS011;23758;42.640;23.302;2023-06-22T23:40:13;1.98;;;1.88;;
37931;SDS011;23758;42.640;23.302;2023-06-22T23:42:42;1.95;;;1.85;;
37931;SDS011;23758;42.640;23.302;2023-06-22T23:45:14;2.00;;;1.90;;
37931;SDS011;23758;42.640;23.302;2023-06-22T23:47:42;2.20;;;1.90;;
37931;SDS011;23758;42.640;23.302;2023-06-22T23:50:08;2.28;;;2.08;;
37931;SDS011;23758;42.640;23.302;2023-06-22T23:52:34;2.15;;;2.05;;
37931;SDS011;23758;42.640;23.302;2023-06-22T23:55:00;2.30;;;2.17;;
37931;SDS011;23758;42.640;23.302;2023-06-22T23:57:27;2.38;;;2.17;;
37931;SDS011;23758;42.640;23.302;2023-06-22T23:59:52;2.10;;;2.00;;
